sensor_id;sensor_type;location;lat;lon;timestamp;pressure;altitude;pressure_sealevel;temperature;humidity
72548;BME280;60570;50.848;6.776;2022-11-28T00:00:38;100145.00;;;9.20;70.65
72548;BME280;60570;50.848;6.776;2022-11-28T00:01:42;100156.09;;;9.20;70.54
72548;BME280;60570;50.848;6.776;2022-11-28T00:02:42;100148.88;;;9.27;70.46
72548;BME280;60570;50.848;6.776;2022-11-28T00:03:43;100147.13;;;9.23;70.51
72548;BME280;60570;50.848;6.776;2022-11-28T00:04:43;100149.91;;;9.23;70.45
72548;BME280;60570;50.848;6.776;2022-11-28T00:05:44;100146.81;;;9.16;70.86
72548;BME280;60570;50.848;6.776;2022-11-28T00:06:45;100149.44;;;9.21;70.88
72548;BME280;60570;50.848;6.776;2022-11-28T00:07:48;100152.00;;;9.26;70.87
72548;BME280;60570;50.848;6.776;2022-11-28T00:08:48;100143.69;;;9.26;70.57
72548;BME280;60570;50.848;6.776;2022-11-28T00:09:49;100148.13;;;9.18;70.87
72548;BME280;60570;50.848;6.776;2022-11-28T00:10:49;100146.56;;;9.09;71.20
72548;BME280;60570;50.848;6.776;2022-11-28T00:11:50;100139.13;;;9.21;70.88
72548;BME280;60570;50.848;6.776;2022-11-28T00:12:50;100141.16;;;9.12;70.82
72548;BME280;60570;50.848;6.776;2022-11-28T00:13:51;100141.16;;;9.12;71.00
72548;BME280;60570;50.848;6.776;2022-11-28T00:14:51;100142.72;;;9.22;70.75
72548;BME280;60570;50.848;6.776;2022-11-28T00:15:57;100142.44;;;9.15;70.76
72548;BME280;60570;50.848;6.776;2022-11-28T00:16:57;100138.84;;;9.14;71.37
72548;BME280;60570;50.848;6.776;2022-11-28T00:17:58;100143.66;;;9.05;71.37
72548;BME280;60570;50.848;6.776;2022-11-28T00:18:59;100143.91;;;9.12;71.05
72548;BME280;60570;50.848;6.776;2022-11-28T00:20:00;100140.63;;;9.19;70.88
72548;BME280;60570;50.848;6.776;2022-11-28T00:21:06;100143.91;;;9.12;71.27
72548;BME280;60570;50.848;6.776;2022-11-28T00:22:06;100144.59;;;9.09;71.28
72548;BME280;60570;50.848;6.776;2022-11-28T00:23:07;100148.94;;;9.19;70.67
72548;BME280;60570;50.848;6.776;2022-11-28T00:24:07;100143.88;;;9.21;71.11
72548;BME280;60570;50.848;6.776;2022-11-28T00:25:08;100140.78;;;9.22;70.91
72548;BME280;60570;50.848;6.776;2022-11-28T00:27:11;100127.03;;;9.26;70.92
72548;BME280;60570;50.848;6.776;2022-11-28T00:28:11;100126.44;;;9.20;70.70
72548;BME280;60570;50.848;6.776;2022-11-28T00:29:12;100120.91;;;9.20;70.86
72548;BME280;60570;50.848;6.776;2022-11-28T00:30:12;100119.94;;;9.16;71.23
72548;BME280;60570;50.848;6.776;2022-11-28T00:31:14;100115.81;;;9.22;71.01
72548;BME280;60570;50.848;6.776;2022-11-28T00:32:15;100117.31;;;9.20;71.01
72548;BME280;60570;50.848;6.776;2022-11-28T00:33:15;100114.66;;;9.23;70.63
72548;BME280;60570;50.848;6.776;2022-11-28T00:34:15;100113.66;;;9.28;70.59
72548;BME280;60570;50.848;6.776;2022-11-28T00:35:16;100118.88;;;9.29;70.40
72548;BME280;60570;50.848;6.776;2022-11-28T00:36:17;100116.31;;;9.24;70.80
72548;BME280;60570;50.848;6.776;2022-11-28T00:37:17;100102.78;;;9.23;70.96
72548;BME280;60570;50.848;6.776;2022-11-28T00:38:18;100101.97;;;9.22;70.96
72548;BME280;60570;50.848;6.776;2022-11-28T00:39:18;100099.47;;;9.29;70.74
72548;BME280;60570;50.848;6.776;2022-11-28T00:40:19;100093.84;;;9.17;70.77
72548;BME280;60570;50.848;6.776;2022-11-28T00:41:23;100092.19;;;9.25;70.83
72548;BME280;60570;50.848;6.776;2022-11-28T00:42:23;100098.84;;;9.24;70.82
72548;BME280;60570;50.848;6.776;2022-11-28T00:43:24;100094.19;;;9.16;71.19
72548;BME280;60570;50.848;6.776;2022-11-28T00:44:24;100099.59;;;9.12;71.33
72548;BME280;60570;50.848;6.776;2022-11-28T00:45:24;100099.38;;;9.17;71.20
72548;BME280;60570;50.848;6.776;2022-11-28T00:46:25;100104.91;;;9.17;71.23
72548;BME280;60570;50.848;6.776;2022-11-28T00:47:26;100100.75;;;9.11;71.18
72548;BME280;60570;50.848;6.776;2022-11-28T00:48:27;100097.28;;;9.14;71.48
72548;BME280;60570;50.848;6.776;2022-11-28T00:49:27;100098.59;;;9.17;71.49
72548;BME280;60570;50.848;6.776;2022-11-28T00:50:28;100098.84;;;9.24;70.68
72548;BME280;60570;50.848;6.776;2022-11-28T00:51:33;100104.06;;;9.25;70.83
72548;BME280;60570;50.848;6.776;2022-11-28T00:52:33;100109.59;;;9.25;70.87
72548;BME280;60570;50.848;6.776;2022-11-28T00:53:35;100099.34;;;9.26;70.81
72548;BME280;60570;50.848;6.776;2022-11-28T00:54:35;100092.22;;;9.16;70.68
72548;BME280;60570;50.848;6.776;2022-11-28T00:55:39;100099.94;;;9.11;71.39
72548;BME280;60570;50.848;6.776;2022-11-28T00:56:40;100100.06;;;9.14;71.17
72548;BME280;60570;50.848;6.776;2022-11-28T00:57:40;100100.94;;;9.06;71.40
72548;BME280;60570;50.848;6.776;2022-11-28T00:58:42;100104.31;;;9.12;71.13
72548;BME280;60570;50.848;6.776;2022-11-28T00:59:42;100110.81;;;9.16;71.04
72548;BME280;60570;50.848;6.776;2022-11-28T01:00:42;100101.03;;;9.18;70.91
72548;BME280;60570;50.848;6.776;2022-11-28T01:01:43;100095.34;;;9.15;71.28
72548;BME280;60570;50.848;6.776;2022-11-28T01:02:43;100095.03;;;9.07;71.26
72548;BME280;60570;50.848;6.776;2022-11-28T01:03:44;100100.69;;;9.20;71.00
72548;BME280;60570;50.848;6.776;2022-11-28T01:04:45;100090.19;;;9.25;70.88
72548;BME280;60570;50.848;6.776;2022-11-28T01:05:45;100088.28;;;9.17;71.12
72548;BME280;60570;50.848;6.776;2022-11-28T01:06:48;100090.94;;;9.14;71.19
72548;BME280;60570;50.848;6.776;2022-11-28T01:07:49;100086.94;;;9.23;71.19
72548;BME280;60570;50.848;6.776;2022-11-28T01:08:50;100078.16;;;9.21;70.81
72548;BME280;60570;50.848;6.776;2022-11-28T01:09:50;100085.00;;;9.24;71.04
72548;BME280;60570;50.848;6.776;2022-11-28T01:10:51;100082.31;;;9.15;71.13
72548;BME280;60570;50.848;6.776;2022-11-28T01:11:52;100084.00;;;9.28;70.78
72548;BME280;60570;50.848;6.776;2022-11-28T01:12:52;100086.69;;;9.16;71.12
72548;BME280;60570;50.848;6.776;2022-11-28T01:13:57;100088.94;;;9.23;71.01
72548;BME280;60570;50.848;6.776;2022-11-28T01:14:59;100080.75;;;9.26;70.91
72548;BME280;60570;50.848;6.776;2022-11-28T01:15:59;100077.84;;;9.23;71.13
72548;BME280;60570;50.848;6.776;2022-11-28T01:17:00;100080.31;;;9.16;71.07
72548;BME280;60570;50.848;6.776;2022-11-28T01:18:01;100078.59;;;9.11;71.30
72548;BME280;60570;50.848;6.776;2022-11-28T01:19:02;100081.16;;;9.16;71.15
72548;BME280;60570;50.848;6.776;2022-11-28T01:20:04;100080.19;;;9.12;71.26
72548;BME280;60570;50.848;6.776;2022-11-28T01:21:06;100072.63;;;9.21;70.88
72548;BME280;60570;50.848;6.776;2022-11-28T01:22:07;100065.94;;;9.22;70.91
72548;BME280;60570;50.848;6.776;2022-11-28T01:23:07;100066.28;;;9.21;71.06
72548;BME280;60570;50.848;6.776;2022-11-28T01:24:08;100067.25;;;9.25;70.96
72548;BME280;60570;50.848;6.776;2022-11-28T01:25:09;100062.75;;;9.12;71.13
72548;BME280;60570;50.848;6.776;2022-11-28T01:26:15;100057.81;;;9.17;71.10
72548;BME280;60570;50.848;6.776;2022-11-28T01:27:15;100062.44;;;9.13;71.66
72548;BME280;60570;50.848;6.776;2022-11-28T01:28:16;100066.94;;;9.18;71.65
72548;BME280;60570;50.848;6.776;2022-11-28T01:29:16;100074.38;;;9.26;71.18
72548;BME280;60570;50.848;6.776;2022-11-28T01:30:17;100081.22;;;9.28;70.74
72548;BME280;60570;50.848;6.776;2022-11-28T01:31:24;100077.63;;;9.28;70.68
72548;BME280;60570;50.848;6.776;2022-11-28T01:32:25;100079.47;;;9.24;70.82
72548;BME280;60570;50.848;6.776;2022-11-28T01:33:25;100082.69;;;9.26;71.08
72548;BME280;60570;50.848;6.776;2022-11-28T01:34:26;100077.06;;;9.14;71.07
72548;BME280;60570;50.848;6.776;2022-11-28T01:35:26;100069.53;;;9.23;71.17
72548;BME280;60570;50.848;6.776;2022-11-28T01:36:28;100070.50;;;9.27;71.20
72548;BME280;60570;50.848;6.776;2022-11-28T01:37:29;100068.97;;;9.29;70.68
72548;BME280;60570;50.848;6.776;2022-11-28T01:38:30;100068.31;;;9.32;70.96
72548;BME280;60570;50.848;6.776;2022-11-28T01:39:30;100056.56;;;9.15;71.09
72548;BME280;60570;50.848;6.776;2022-11-28T01:40:31;100052.09;;;9.22;71.22
72548;BME280;60570;50.848;6.776;2022-11-28T01:41:31;100054.50;;;9.24;71.20
72548;BME280;60570;50.848;6.776;2022-11-28T01:42:32;100062.09;;;9.15;71.10
72548;BME280;60570;50.848;6.776;2022-11-28T01:43:33;100055.59;;;9.11;71.50
72548;BME280;60570;50.848;6.776;2022-11-28T01:45:34;100059.97;;;9.12;71.49
72548;BME280;60570;50.848;6.776;2022-11-28T01:46:35;100053.66;;;9.11;71.57
72548;BME280;60570;50.848;6.776;2022-11-28T01:47:36;100051.06;;;9.06;71.53
72548;BME280;60570;50.848;6.776;2022-11-28T01:48:38;100046.00;;;9.08;71.49
72548;BME280;60570;50.848;6.776;2022-11-28T01:49:40;100045.00;;;9.13;71.19
72548;BME280;60570;50.848;6.776;2022-11-28T01:50:42;100041.88;;;9.14;71.50
72548;BME280;60570;50.848;6.776;2022-11-28T01:51:48;100040.19;;;9.22;71.50
72548;BME280;60570;50.848;6.776;2022-11-28T01:52:52;100031.88;;;9.22;71.38
72548;BME280;60570;50.848;6.776;2022-11-28T01:53:54;100031.75;;;9.18;71.04
72548;BME280;60570;50.848;6.776;2022-11-28T01:54:59;100031.88;;;9.22;71.29
72548;BME280;60570;50.848;6.776;2022-11-28T01:56:06;100031.53;;;9.23;71.01
72548;BME280;60570;50.848;6.776;2022-11-28T01:57:10;100032.81;;;9.26;71.21
72548;BME280;60570;50.848;6.776;2022-11-28T01:58:11;100036.06;;;9.28;70.77
72548;BME280;60570;50.848;6.776;2022-11-28T01:59:14;100033.56;;;9.14;71.15
72548;BME280;60570;50.848;6.776;2022-11-28T02:00:17;100031.13;;;9.13;71.49
72548;BME280;60570;50.848;6.776;2022-11-28T02:01:19;100037.03;;;9.11;71.47
72548;BME280;60570;50.848;6.776;2022-11-28T02:02:36;100029.44;;;9.20;71.53
72548;BME280;60570;50.848;6.776;2022-11-28T02:03:45;100027.75;;;9.28;70.85
72548;BME280;60570;50.848;6.776;2022-11-28T02:04:46;100040.28;;;9.13;71.45
72548;BME280;60570;50.848;6.776;2022-11-28T02:05:49;100037.50;;;9.13;71.67
72548;BME280;60570;50.848;6.776;2022-11-28T02:06:49;100023.78;;;9.17;71.38
72548;BME280;60570;50.848;6.776;2022-11-28T02:07:50;100031.75;;;9.18;71.51
72548;BME280;60570;50.848;6.776;2022-11-28T02:08:52;100039.84;;;9.23;71.03
72548;BME280;60570;50.848;6.776;2022-11-28T02:09:52;100040.41;;;9.17;71.06
72548;BME280;60570;50.848;6.776;2022-11-28T02:18:00;100043.16;;;9.17;71.40
72548;BME280;60570;50.848;6.776;2022-11-28T02:21:35;100039.84;;;9.23;70.83
72548;BME280;60570;50.848;6.776;2022-11-28T02:23:55;100020.72;;;9.30;70.65
72548;BME280;60570;50.848;6.776;2022-11-28T02:30:53;100018.09;;;9.34;71.00
72548;BME280;60570;50.848;6.776;2022-11-28T02:32:14;100034.59;;;9.30;71.13
72548;BME280;60570;50.848;6.776;2022-11-28T02:33:20;100028.56;;;9.28;71.00
72548;BME280;60570;50.848;6.776;2022-11-28T02:34:29;100025.09;;;9.31;70.74
72548;BME280;60570;50.848;6.776;2022-11-28T02:37:08;100021.50;;;9.31;70.90
72548;BME280;60570;50.848;6.776;2022-11-28T02:39:49;100014.72;;;9.28;70.77
72548;BME280;60570;50.848;6.776;2022-11-28T02:41:01;100014.25;;;9.26;71.23
72548;BME280;60570;50.848;6.776;2022-11-28T02:42:33;100017.34;;;9.25;71.12
72548;BME280;60570;50.848;6.776;2022-11-28T02:43:47;100016.31;;;9.29;71.14
72548;BME280;60570;50.848;6.776;2022-11-28T02:45:02;100011.13;;;9.28;70.96
72548;BME280;60570;50.848;6.776;2022-11-28T02:46:48;100004.09;;;9.30;70.76
72548;BME280;60570;50.848;6.776;2022-11-28T02:47:44;100004.88;;;9.31;71.06
72548;BME280;60570;50.848;6.776;2022-11-28T02:48:54;100001.44;;;9.34;70.73
72548;BME280;60570;50.848;6.776;2022-11-28T02:50:18;100009.50;;;9.27;71.07
72548;BME280;60570;50.848;6.776;2022-11-28T02:51:39;100000.03;;;9.28;71.20
72548;BME280;60570;50.848;6.776;2022-11-28T02:52:44;100004.97;;;9.22;71.18
72548;BME280;60570;50.848;6.776;2022-11-28T02:53:47;100007.06;;;9.25;71.17
72548;BME280;60570;50.848;6.776;2022-11-28T02:54:49;99997.13;;;9.24;71.41
72548;BME280;60570;50.848;6.776;2022-11-28T02:55:51;100001.19;;;9.27;71.14
72548;BME280;60570;50.848;6.776;2022-11-28T02:56:53;99996.13;;;9.29;70.88
72548;BME280;60570;50.848;6.776;2022-11-28T02:57:54;99993.19;;;9.25;71.08
72548;BME280;60570;50.848;6.776;2022-11-28T02:58:54;99994.44;;;9.16;71.14
72548;BME280;60570;50.848;6.776;2022-11-28T02:59:55;99989.94;;;9.11;71.36
72548;BME280;60570;50.848;6.776;2022-11-28T03:00:56;99998.72;;;9.13;71.71
72548;BME280;60570;50.848;6.776;2022-11-28T03:01:56;99993.41;;;9.20;71.45
72548;BME280;60570;50.848;6.776;2022-11-28T03:04:33;99995.19;;;9.25;71.34
72548;BME280;60570;50.848;6.776;2022-11-28T03:06:06;99999.97;;;9.16;71.59
72548;BME280;60570;50.848;6.776;2022-11-28T03:10:03;100013.75;;;9.24;71.30
72548;BME280;60570;50.848;6.776;2022-11-28T03:13:37;99995.31;;;9.28;70.87
72548;BME280;60570;50.848;6.776;2022-11-28T03:14:56;99996.44;;;9.27;71.34
72548;BME280;60570;50.848;6.776;2022-11-28T03:16:16;99992.72;;;9.23;71.29
72548;BME280;60570;50.848;6.776;2022-11-28T03:23:14;99985.84;;;9.09;71.77
72548;BME280;60570;50.848;6.776;2022-11-28T03:24:21;99997.41;;;9.11;71.66
72548;BME280;60570;50.848;6.776;2022-11-28T03:26:54;99971.72;;;9.22;71.50
72548;BME280;60570;50.848;6.776;2022-11-28T03:28:05;99974.97;;;9.24;71.09
72548;BME280;60570;50.848;6.776;2022-11-28T03:29:14;99986.72;;;9.21;71.25
72548;BME280;60570;50.848;6.776;2022-11-28T03:30:23;99985.72;;;9.26;71.50
72548;BME280;60570;50.848;6.776;2022-11-28T03:31:40;99982.56;;;9.15;71.27
72548;BME280;60570;50.848;6.776;2022-11-28T03:32:43;99977.13;;;9.19;71.21
72548;BME280;60570;50.848;6.776;2022-11-28T03:33:56;99978.28;;;9.18;71.82
72548;BME280;60570;50.848;6.776;2022-11-28T03:35:12;99969.16;;;9.17;71.40
72548;BME280;60570;50.848;6.776;2022-11-28T03:36:17;99969.38;;;9.12;71.43
72548;BME280;60570;50.848;6.776;2022-11-28T03:37:38;99959.16;;;9.25;71.40
72548;BME280;60570;50.848;6.776;2022-11-28T03:38:44;99966.19;;;9.22;71.25
72548;BME280;60570;50.848;6.776;2022-11-28T03:39:50;99966.06;;;9.19;71.65
72548;BME280;60570;50.848;6.776;2022-11-28T03:40:55;99969.31;;;9.21;71.18
72548;BME280;60570;50.848;6.776;2022-11-28T03:42:09;99967.53;;;9.16;71.41
72548;BME280;60570;50.848;6.776;2022-11-28T03:43:14;99971.38;;;9.24;71.23
72548;BME280;60570;50.848;6.776;2022-11-28T03:44:28;99966.78;;;9.28;71.09
72548;BME280;60570;50.848;6.776;2022-11-28T03:45:35;99970.25;;;9.25;71.06
72548;BME280;60570;50.848;6.776;2022-11-28T03:46:42;99968.13;;;9.22;71.34
72548;BME280;60570;50.848;6.776;2022-11-28T03:47:46;99973.56;;;9.18;71.52
72548;BME280;60570;50.848;6.776;2022-11-28T03:48:52;99967.31;;;9.21;71.52
72548;BME280;60570;50.848;6.776;2022-11-28T03:49:56;99964.28;;;9.14;71.30
72548;BME280;60570;50.848;6.776;2022-11-28T03:51:19;99956.69;;;9.23;71.37
72548;BME280;60570;50.848;6.776;2022-11-28T03:52:28;99960.75;;;9.26;71.42
72548;BME280;60570;50.848;6.776;2022-11-28T03:53:41;99961.09;;;9.24;71.42
72548;BME280;60570;50.848;6.776;2022-11-28T03:54:51;99967.47;;;9.25;71.10
72548;BME280;60570;50.848;6.776;2022-11-28T03:55:59;99964.41;;;9.18;71.52
72548;BME280;60570;50.848;6.776;2022-11-28T03:59:33;99967.13;;;9.26;71.64
72548;BME280;60570;50.848;6.776;2022-11-28T04:00:37;99976.44;;;9.22;71.67
72548;BME280;60570;50.848;6.776;2022-11-28T04:01:52;99963.81;;;9.12;71.83
72548;BME280;60570;50.848;6.776;2022-11-28T04:03:16;99971.47;;;9.15;71.71
72548;BME280;60570;50.848;6.776;2022-11-28T04:05:10;99969.97;;;9.18;71.81
72548;BME280;60570;50.848;6.776;2022-11-28T04:05:47;99971.59;;;9.19;71.79
72548;BME280;60570;50.848;6.776;2022-11-28T04:06:51;99958.81;;;9.05;71.75
72548;BME280;60570;50.848;6.776;2022-11-28T04:09:17;99959.34;;;9.20;71.55
72548;BME280;60570;50.848;6.776;2022-11-28T04:10:23;99958.22;;;9.21;71.74
72548;BME280;60570;50.848;6.776;2022-11-28T04:11:40;99953.28;;;9.26;71.29
72548;BME280;60570;50.848;6.776;2022-11-28T04:13:06;99946.19;;;9.17;71.80
72548;BME280;60570;50.848;6.776;2022-11-28T04:14:34;99954.16;;;9.18;71.56
72548;BME280;60570;50.848;6.776;2022-11-28T04:15:43;99947.13;;;9.21;71.36
72548;BME280;60570;50.848;6.776;2022-11-28T04:16:53;99952.06;;;9.15;71.93
72548;BME280;60570;50.848;6.776;2022-11-28T04:19:26;99953.00;;;9.19;71.67
72548;BME280;60570;50.848;6.776;2022-11-28T04:20:40;99955.16;;;9.14;71.97
72548;BME280;60570;50.848;6.776;2022-11-28T04:21:52;99953.22;;;9.14;72.05
72548;BME280;60570;50.848;6.776;2022-11-28T04:22:58;99958.53;;;9.19;71.86
72548;BME280;60570;50.848;6.776;2022-11-28T04:24:07;99953.63;;;9.25;71.33
72548;BME280;60570;50.848;6.776;2022-11-28T04:25:13;99952.41;;;9.14;71.81
72548;BME280;60570;50.848;6.776;2022-11-28T04:26:23;99952.25;;;9.10;72.08
72548;BME280;60570;50.848;6.776;2022-11-28T04:27:30;99951.91;;;9.12;72.03
72548;BME280;60570;50.848;6.776;2022-11-28T04:28:33;99957.94;;;9.14;71.63
72548;BME280;60570;50.848;6.776;2022-11-28T04:29:37;99961.06;;;9.12;72.19
72548;BME280;60570;50.848;6.776;2022-11-28T04:30:40;99968.16;;;9.01;72.44
72548;BME280;60570;50.848;6.776;2022-11-28T04:31:44;99961.09;;;9.03;72.29
72548;BME280;60570;50.848;6.776;2022-11-28T04:32:49;99963.69;;;9.09;72.01
72548;BME280;60570;50.848;6.776;2022-11-28T04:33:59;99953.97;;;9.02;72.15
72548;BME280;60570;50.848;6.776;2022-11-28T04:35:05;99968.34;;;8.96;72.60
72548;BME280;60570;50.848;6.776;2022-11-28T04:36:10;99967.94;;;9.06;72.58
72548;BME280;60570;50.848;6.776;2022-11-28T04:37:12;99971.47;;;9.15;71.86
72548;BME280;60570;50.848;6.776;2022-11-28T04:38:14;99966.06;;;9.19;71.68
72548;BME280;60570;50.848;6.776;2022-11-28T04:39:18;99973.09;;;9.16;71.77
72548;BME280;60570;50.848;6.776;2022-11-28T04:40:22;99960.16;;;9.20;71.54
72548;BME280;60570;50.848;6.776;2022-11-28T04:41:33;99971.59;;;9.19;71.77
72548;BME280;60570;50.848;6.776;2022-11-28T04:42:39;99967.06;;;9.14;71.62
72548;BME280;60570;50.848;6.776;2022-11-28T04:43:45;99973.13;;;9.07;72.31
72548;BME280;60570;50.848;6.776;2022-11-28T04:44:57;99978.84;;;9.11;71.82
72548;BME280;60570;50.848;6.776;2022-11-28T04:46:10;99972.13;;;9.12;72.07
72548;BME280;60570;50.848;6.776;2022-11-28T04:47:12;99974.91;;;9.12;72.12
72548;BME280;60570;50.848;6.776;2022-11-28T04:48:13;99971.72;;;9.22;71.92
72548;BME280;60570;50.848;6.776;2022-11-28T04:49:13;99968.94;;;9.22;71.70
72548;BME280;60570;50.848;6.776;2022-11-28T04:50:14;99974.28;;;9.27;71.34
72548;BME280;60570;50.848;6.776;2022-11-28T04:52:56;99984.41;;;9.23;71.33
72548;BME280;60570;50.848;6.776;2022-11-28T04:54:13;99983.94;;;9.21;71.34
72548;BME280;60570;50.848;6.776;2022-11-28T04:55:27;99988.63;;;9.09;71.89
72548;BME280;60570;50.848;6.776;2022-11-28T04:56:38;99985.16;;;9.12;71.64
72548;BME280;60570;50.848;6.776;2022-11-28T04:57:44;99986.00;;;9.12;71.87
72548;BME280;60570;50.848;6.776;2022-11-28T04:58:47;99984.38;;;9.11;71.65
72548;BME280;60570;50.848;6.776;2022-11-28T04:59:48;99993.47;;;9.12;71.92
72548;BME280;60570;50.848;6.776;2022-11-28T05:00:51;99987.41;;;9.18;71.56
72548;BME280;60570;50.848;6.776;2022-11-28T05:01:54;99992.25;;;9.21;71.50
72548;BME280;60570;50.848;6.776;2022-11-28T05:02:55;99990.31;;;9.22;71.48
72548;BME280;60570;50.848;6.776;2022-11-28T05:03:56;99994.03;;;9.26;71.28
72548;BME280;60570;50.848;6.776;2022-11-28T05:04:57;99991.94;;;9.23;71.59
72548;BME280;60570;50.848;6.776;2022-11-28T05:05:57;99998.44;;;9.27;71.35
72548;BME280;60570;50.848;6.776;2022-11-28T05:07:02;99992.06;;;9.26;71.12
72548;BME280;60570;50.848;6.776;2022-11-28T05:08:03;99993.34;;;9.29;71.10
72548;BME280;60570;50.848;6.776;2022-11-28T05:09:04;99993.69;;;9.27;71.23
72548;BME280;60570;50.848;6.776;2022-11-28T05:10:05;99995.97;;;9.25;71.21
72548;BME280;60570;50.848;6.776;2022-11-28T05:11:06;99995.66;;;9.27;71.23
72548;BME280;60570;50.848;6.776;2022-11-28T05:12:06;99998.28;;;9.23;71.51
72548;BME280;60570;50.848;6.776;2022-11-28T05:13:07;99990.41;;;9.13;71.67
72548;BME280;60570;50.848;6.776;2022-11-28T05:14:07;99996.53;;;9.19;71.58
72548;BME280;60570;50.848;6.776;2022-11-28T05:15:08;100001.38;;;9.22;71.26
72548;BME280;60570;50.848;6.776;2022-11-28T05:16:10;100002.34;;;9.26;71.62
72548;BME280;60570;50.848;6.776;2022-11-28T05:17:12;99995.97;;;9.25;70.99
72548;BME280;60570;50.848;6.776;2022-11-28T05:18:12;99991.25;;;9.26;71.43
72548;BME280;60570;50.848;6.776;2022-11-28T05:19:13;99989.44;;;9.30;71.02
72548;BME280;60570;50.848;6.776;2022-11-28T05:20:13;99997.78;;;9.21;71.21
72548;BME280;60570;50.848;6.776;2022-11-28T05:21:14;99997.53;;;9.14;71.57
72548;BME280;60570;50.848;6.776;2022-11-28T05:22:14;100002.34;;;9.26;71.43
72548;BME280;60570;50.848;6.776;2022-11-28T05:23:15;99997.97;;;9.25;71.49
72548;BME280;60570;50.848;6.776;2022-11-28T05:24:15;99990.06;;;9.15;71.48
72548;BME280;60570;50.848;6.776;2022-11-28T05:25:16;99992.34;;;9.13;71.91
72548;BME280;60570;50.848;6.776;2022-11-28T05:26:19;99999.25;;;9.07;71.73
72548;BME280;60570;50.848;6.776;2022-11-28T05:27:19;100001.78;;;9.12;72.12
72548;BME280;60570;50.848;6.776;2022-11-28T05:28:20;100005.38;;;9.12;71.64
72548;BME280;60570;50.848;6.776;2022-11-28T05:29:20;99994.56;;;9.19;71.82
72548;BME280;60570;50.848;6.776;2022-11-28T05:30:21;100005.25;;;9.09;71.81
72548;BME280;60570;50.848;6.776;2022-11-28T05:31:21;100006.53;;;9.11;71.69
72548;BME280;60570;50.848;6.776;2022-11-28T05:32:22;100004.56;;;9.12;71.52
72548;BME280;60570;50.848;6.776;2022-11-28T05:33:23;99996.41;;;9.15;71.49
72548;BME280;60570;50.848;6.776;2022-11-28T05:34:23;99998.97;;;9.20;71.60
72548;BME280;60570;50.848;6.776;2022-11-28T05:35:23;100001.03;;;9.23;71.68
72548;BME280;60570;50.848;6.776;2022-11-28T05:36:24;99999.78;;;9.21;71.21
72548;BME280;60570;50.848;6.776;2022-11-28T05:37:25;99993.63;;;9.15;71.59
72548;BME280;60570;50.848;6.776;2022-11-28T05:38:26;100006.72;;;9.06;71.58
72548;BME280;60570;50.848;6.776;2022-11-28T05:39:26;100003.63;;;9.07;71.94
72548;BME280;60570;50.848;6.776;2022-11-28T05:40:27;99998.53;;;9.10;72.03
72548;BME280;60570;50.848;6.776;2022-11-28T05:41:29;99992.59;;;9.20;71.36
72548;BME280;60570;50.848;6.776;2022-11-28T05:42:34;99986.25;;;9.19;71.73
72548;BME280;60570;50.848;6.776;2022-11-28T05:43:34;99990.19;;;9.18;71.38
72548;BME280;60570;50.848;6.776;2022-11-28T05:44:35;99992.81;;;9.15;71.47
72548;BME280;60570;50.848;6.776;2022-11-28T05:45:40;99990.53;;;9.17;71.35
72548;BME280;60570;50.848;6.776;2022-11-28T05:46:41;99995.47;;;9.11;71.41
72548;BME280;60570;50.848;6.776;2022-11-28T05:47:41;100000.38;;;9.05;71.71
72548;BME280;60570;50.848;6.776;2022-11-28T05:48:42;99992.13;;;9.18;71.65
72548;BME280;60570;50.848;6.776;2022-11-28T05:49:42;99995.38;;;9.20;71.65
72548;BME280;60570;50.848;6.776;2022-11-28T05:50:43;99987.88;;;9.20;71.26
72548;BME280;60570;50.848;6.776;2022-11-28T05:51:43;99994.56;;;9.19;71.32
72548;BME280;60570;50.848;6.776;2022-11-28T05:52:43;99997.19;;;9.16;71.46
72548;BME280;60570;50.848;6.776;2022-11-28T05:53:44;99992.22;;;9.09;71.75
72548;BME280;60570;50.848;6.776;2022-11-28T05:54:44;99999.97;;;9.16;71.50
72548;BME280;60570;50.848;6.776;2022-11-28T05:55:46;99995.25;;;9.16;71.65
72548;BME280;60570;50.848;6.776;2022-11-28T05:56:46;100004.56;;;9.12;71.83
72548;BME280;60570;50.848;6.776;2022-11-28T05:57:47;99987.16;;;9.11;71.66
72548;BME280;60570;50.848;6.776;2022-11-28T05:58:47;99997.28;;;9.07;72.06
72548;BME280;60570;50.848;6.776;2022-11-28T05:59:48;99987.94;;;9.12;71.80
72548;BME280;60570;50.848;6.776;2022-11-28T06:00:48;99985.03;;;9.08;71.53
72548;BME280;60570;50.848;6.776;2022-11-28T06:01:49;99984.50;;;9.15;71.82
72548;BME280;60570;50.848;6.776;2022-11-28T06:02:49;99983.44;;;9.07;71.76
72548;BME280;60570;50.848;6.776;2022-11-28T06:03:51;99979.16;;;9.10;71.70
72548;BME280;60570;50.848;6.776;2022-11-28T06:04:57;99980.91;;;9.14;71.80
72548;BME280;60570;50.848;6.776;2022-11-28T06:05:57;99977.31;;;9.14;71.67
72548;BME280;60570;50.848;6.776;2022-11-28T06:06:57;99978.84;;;9.11;72.02
72548;BME280;60570;50.848;6.776;2022-11-28T06:07:58;99969.25;;;9.09;71.97
72548;BME280;60570;50.848;6.776;2022-11-28T06:08:59;99959.44;;;9.11;72.01
72548;BME280;60570;50.848;6.776;2022-11-28T06:09:59;99951.91;;;9.12;71.88
72548;BME280;60570;50.848;6.776;2022-11-28T06:10:59;99956.69;;;9.11;71.70
72548;BME280;60570;50.848;6.776;2022-11-28T06:12:00;99955.28;;;9.17;71.67
72548;BME280;60570;50.848;6.776;2022-11-28T06:13:00;99948.97;;;9.17;71.94
72548;BME280;60570;50.848;6.776;2022-11-28T06:14:02;99952.50;;;9.05;71.85
72548;BME280;60570;50.848;6.776;2022-11-28T06:15:02;99955.09;;;9.01;72.19
72548;BME280;60570;50.848;6.776;2022-11-28T06:16:08;99956.13;;;8.97;72.08
72548;BME280;60570;50.848;6.776;2022-11-28T06:17:08;99957.34;;;9.08;72.24
72548;BME280;60570;50.848;6.776;2022-11-28T06:18:09;99956.69;;;9.11;71.78
72548;BME280;60570;50.848;6.776;2022-11-28T06:19:11;99957.69;;;9.07;72.05
72548;BME280;60570;50.848;6.776;2022-11-28T06:20:12;99960.63;;;9.01;71.92
72548;BME280;60570;50.848;6.776;2022-11-28T06:21:13;99957.09;;;9.01;72.39
72548;BME280;60570;50.848;6.776;2022-11-28T06:22:15;99954.09;;;9.06;72.11
72548;BME280;60570;50.848;6.776;2022-11-28T06:23:15;99960.78;;;9.05;71.87
72548;BME280;60570;50.848;6.776;2022-11-28T06:24:16;99963.75;;;9.00;72.08